Terminal Aerodrome Forecast
Issued by NWS Boston, MA

Home | Current Version | Previous Version | Text Only | Print | Product List | Glossary On
Versions: 1 2 3 4 5 6 7 8 9 10 11 12 13 14 15 16 17 18 19 20 21 22 23 24
000
FTUS41 KBOX 260202 AAA
TAFBOS
TAF AMD
KBOS 260202Z 2602/2706 21013KT P6SM BKN110 OVC250
     FM260900 22008KT 4SM BR VCSH BKN050
     FM261300 23008KT P6SM VCSH BKN050
     FM262200 27005KT P6SM SCT130
     FM270500 33005KT P6SM FEW250=

USA.gov is the U.S. government's official web portal to all federal, state and local government web resources and services.